sensor_id;sensor_type;location;lat;lon;timestamp;pressure;altitude;pressure_sealevel;temperature;humidity
14295;BME280;7231;59.370;18.016;2022-12-18T00:00:07;101922.06;;;-1.22;100.00
14295;BME280;7231;59.370;18.016;2022-12-18T00:02:35;101920.53;;;-1.20;100.00
14295;BME280;7231;59.370;18.016;2022-12-18T00:05:04;101923.13;;;-1.20;100.00
14295;BME280;7231;59.370;18.016;2022-12-18T00:07:32;101917.22;;;-1.19;100.00
14295;BME280;7231;59.370;18.016;2022-12-18T00:10:00;101921.72;;;-1.17;100.00
14295;BME280;7231;59.370;18.016;2022-12-18T00:12:28;101915.69;;;-1.17;100.00
14295;BME280;7231;59.370;18.016;2022-12-18T00:14:56;101867.75;;;-1.44;100.00
14295;BME280;7231;59.370;18.016;2022-12-18T00:17:25;101926.25;;;-1.14;100.00
14295;BME280;7231;59.370;18.016;2022-12-18T00:19:53;101907.41;;;-1.23;100.00
14295;BME280;7231;59.370;18.016;2022-12-18T00:22:21;101930.63;;;-1.13;100.00
14295;BME280;7231;59.370;18.016;2022-12-18T00:24:49;101908.88;;;-1.17;100.00
14295;BME280;7231;59.370;18.016;2022-12-18T00:27:17;101926.81;;;-1.08;100.00
14295;BME280;7231;59.370;18.016;2022-12-18T00:29:45;101910.69;;;-1.16;100.00
14295;BME280;7231;59.370;18.016;2022-12-18T00:32:13;101921.66;;;-1.08;100.00
14295;BME280;7231;59.370;18.016;2022-12-18T00:34:42;101913.19;;;-1.07;100.00
14295;BME280;7231;59.370;18.016;2022-12-18T00:37:10;101908.94;;;-1.07;100.00
14295;BME280;7231;59.370;18.016;2022-12-18T00:39:45;101921.94;;;-1.05;100.00
14295;BME280;7231;59.370;18.016;2022-12-18T00:42:15;101914.22;;;-1.05;100.00
14295;BME280;7231;59.370;18.016;2022-12-18T00:45:01;101909.97;;;-1.05;100.00
14295;BME280;7231;59.370;18.016;2022-12-18T00:47:37;101894.59;;;-1.13;100.00
14295;BME280;7231;59.370;18.016;2022-12-18T00:50:08;101906.66;;;-1.04;100.00
14295;BME280;7231;59.370;18.016;2022-12-18T00:52:36;101911.66;;;-1.05;100.00
14295;BME280;7231;59.370;18.016;2022-12-18T00:55:05;101910.88;;;-1.04;100.00
14295;BME280;7231;59.370;18.016;2022-12-18T00:57:33;101848.00;;;-1.35;100.00
14295;BME280;7231;59.370;18.016;2022-12-18T01:00:01;101912.56;;;-1.05;100.00
14295;BME280;7231;59.370;18.016;2022-12-18T01:02:30;101903.50;;;-1.10;100.00
14295;BME280;7231;59.370;18.016;2022-12-18T01:04:58;101900.38;;;-1.16;100.00
14295;BME280;7231;59.370;18.016;2022-12-18T01:07:27;101905.59;;;-1.06;100.00
14295;BME280;7231;59.370;18.016;2022-12-18T01:09:55;101781.13;;;-1.73;100.00
14295;BME280;7231;59.370;18.016;2022-12-18T01:12:23;101899.69;;;-1.05;100.00
14295;BME280;7231;59.370;18.016;2022-12-18T01:14:51;101910.88;;;-1.04;100.00
14295;BME280;7231;59.370;18.016;2022-12-18T01:17:19;101928.91;;;-1.04;100.00
14295;BME280;7231;59.370;18.016;2022-12-18T01:19:47;101930.56;;;-1.05;100.00
14295;BME280;7231;59.370;18.016;2022-12-18T01:22:15;101931.34;;;-1.06;100.00
14295;BME280;7231;59.370;18.016;2022-12-18T01:24:44;101784.38;;;-1.84;100.00
14295;BME280;7231;59.370;18.016;2022-12-18T01:27:12;101933.16;;;-1.05;100.00
14295;BME280;7231;59.370;18.016;2022-12-18T01:29:40;101909.78;;;-1.16;100.00
14295;BME280;7231;59.370;18.016;2022-12-18T01:32:08;101902.19;;;-1.15;100.00
14295;BME280;7231;59.370;18.016;2022-12-18T01:34:37;101915.13;;;-1.05;100.00
14295;BME280;7231;59.370;18.016;2022-12-18T01:37:05;101929.03;;;-1.03;100.00
14295;BME280;7231;59.370;18.016;2022-12-18T01:39:33;101892.53;;;-1.17;100.00
14295;BME280;7231;59.370;18.016;2022-12-18T01:42:05;101904.06;;;-1.04;100.00
14295;BME280;7231;59.370;18.016;2022-12-18T01:44:55;101898.16;;;-1.03;100.00
14295;BME280;7231;59.370;18.016;2022-12-18T01:47:26;101901.78;;;-1.01;100.00
14295;BME280;7231;59.370;18.016;2022-12-18T01:49:56;101898.44;;;-1.00;100.00
14295;BME280;7231;59.370;18.016;2022-12-18T01:52:26;101898.44;;;-1.00;100.00
14295;BME280;7231;59.370;18.016;2022-12-18T01:54:56;101900.25;;;-0.99;100.00
14295;BME280;7231;59.370;18.016;2022-12-18T01:57:26;101874.72;;;-1.06;100.00
14295;BME280;7231;59.370;18.016;2022-12-18T01:59:58;101871.25;;;-1.06;100.00
14295;BME280;7231;59.370;18.016;2022-12-18T02:02:28;101876.53;;;-1.05;100.00
14295;BME280;7231;59.370;18.016;2022-12-18T02:05:00;101888.56;;;-0.95;100.00
14295;BME280;7231;59.370;18.016;2022-12-18T02:07:35;101892.03;;;-0.94;100.00
14295;BME280;7231;59.370;18.016;2022-12-18T02:10:09;101893.84;;;-0.93;100.00
14295;BME280;7231;59.370;18.016;2022-12-18T02:12:47;101888.84;;;-0.92;100.00
14295;BME280;7231;59.370;18.016;2022-12-18T02:15:20;101890.66;;;-0.91;100.00
14295;BME280;7231;59.370;18.016;2022-12-18T02:17:55;101883.81;;;-0.90;100.00
14295;BME280;7231;59.370;18.016;2022-12-18T02:20:28;101880.47;;;-0.89;100.00
14295;BME280;7231;59.370;18.016;2022-12-18T02:23:06;101884.88;;;-0.88;100.00
14295;BME280;7231;59.370;18.016;2022-12-18T02:26:04;101892.59;;;-0.88;100.00
14295;BME280;7231;59.370;18.016;2022-12-18T02:28:36;101890.00;;;-0.88;100.00
14295;BME280;7231;59.370;18.016;2022-12-18T02:31:10;101885.63;;;-0.89;100.00
14295;BME280;7231;59.370;18.016;2022-12-18T02:33:40;101873.75;;;-0.98;100.00
14295;BME280;7231;59.370;18.016;2022-12-18T02:36:10;101890.00;;;-0.88;100.00
14295;BME280;7231;59.370;18.016;2022-12-18T02:38:41;101860.38;;;-0.93;100.00
14295;BME280;7231;59.370;18.016;2022-12-18T02:41:12;101849.75;;;-1.07;100.00
14295;BME280;7231;59.370;18.016;2022-12-18T02:43:46;101885.13;;;-0.85;100.00
14295;BME280;7231;59.370;18.016;2022-12-18T02:46:26;101878.31;;;-0.85;100.00
14295;BME280;7231;59.370;18.016;2022-12-18T02:51:49;101871.78;;;-0.81;100.00
14295;BME280;7231;59.370;18.016;2022-12-18T02:54:30;101877.56;;;-0.84;100.00
14295;BME280;7231;59.370;18.016;2022-12-18T02:57:12;101869.69;;;-0.85;100.00
14295;BME280;7231;59.370;18.016;2022-12-18T02:59:49;101865.44;;;-0.85;100.00
14295;BME280;7231;59.370;18.016;2022-12-18T03:02:25;101866.44;;;-0.93;100.00
14295;BME280;7231;59.370;18.016;2022-12-18T03:05:00;101873.03;;;-0.86;100.00
14295;BME280;7231;59.370;18.016;2022-12-18T03:07:36;101840.22;;;-1.08;100.00
14295;BME280;7231;59.370;18.016;2022-12-18T03:10:08;101877.13;;;-0.88;100.00
14295;BME280;7231;59.370;18.016;2022-12-18T03:12:43;101820.47;;;-1.17;100.00
14295;BME280;7231;59.370;18.016;2022-12-18T03:15:17;101856.41;;;-0.90;100.00
14295;BME280;7231;59.370;18.016;2022-12-18T03:17:52;101835.91;;;-0.99;100.00
14295;BME280;7231;59.370;18.016;2022-12-18T03:20:24;101860.78;;;-0.89;100.00
14295;BME280;7231;59.370;18.016;2022-12-18T03:22:57;101837.06;;;-0.95;100.00
14295;BME280;7231;59.370;18.016;2022-12-18T03:25:28;101852.16;;;-0.89;100.00
14295;BME280;7231;59.370;18.016;2022-12-18T03:28:00;101848.00;;;-0.98;100.00
14295;BME280;7231;59.370;18.016;2022-12-18T03:30:33;101854.88;;;-0.88;100.00
14295;BME280;7231;59.370;18.016;2022-12-18T03:33:07;101864.25;;;-0.88;100.00
14295;BME280;7231;59.370;18.016;2022-12-18T03:35:39;101856.53;;;-0.88;100.00
14295;BME280;7231;59.370;18.016;2022-12-18T03:38:09;101855.50;;;-0.90;100.00
14295;BME280;7231;59.370;18.016;2022-12-18T03:40:44;101848.81;;;-0.88;100.00
14295;BME280;7231;59.370;18.016;2022-12-18T03:43:20;101856.28;;;-0.91;100.00
14295;BME280;7231;59.370;18.016;2022-12-18T03:45:53;101859.59;;;-0.92;100.00
14295;BME280;7231;59.370;18.016;2022-12-18T03:48:29;101850.97;;;-0.93;100.00
14295;BME280;7231;59.370;18.016;2022-12-18T03:51:02;101851.75;;;-0.94;100.00
14295;BME280;7231;59.370;18.016;2022-12-18T03:53:38;101830.97;;;-1.06;100.00
14295;BME280;7231;59.370;18.016;2022-12-18T03:56:10;101843.63;;;-0.99;100.00
14295;BME280;7231;59.370;18.016;2022-12-18T03:58:42;101841.03;;;-0.99;100.00
14295;BME280;7231;59.370;18.016;2022-12-18T04:01:13;101844.38;;;-1.00;100.00
14295;BME280;7231;59.370;18.016;2022-12-18T04:03:43;101843.47;;;-1.00;100.00
14295;BME280;7231;59.370;18.016;2022-12-18T04:06:13;101839.09;;;-1.01;100.00
14295;BME280;7231;59.370;18.016;2022-12-18T04:08:42;101809.47;;;-1.25;100.00
14295;BME280;7231;59.370;18.016;2022-12-18T04:11:10;101803.44;;;-1.25;100.00
14295;BME280;7231;59.370;18.016;2022-12-18T04:13:38;101842.31;;;-1.04;100.00
14295;BME280;7231;59.370;18.016;2022-12-18T04:16:09;101854.13;;;-1.06;100.00
14295;BME280;7231;59.370;18.016;2022-12-18T04:18:37;101854.13;;;-1.06;100.00
14295;BME280;7231;59.370;18.016;2022-12-18T04:21:05;101848.97;;;-1.06;100.00
14295;BME280;7231;59.370;18.016;2022-12-18T04:23:32;101859.28;;;-1.06;100.00
14295;BME280;7231;59.370;18.016;2022-12-18T04:26:00;101864.41;;;-1.06;100.00
14295;BME280;7231;59.370;18.016;2022-12-18T04:28:28;101856.56;;;-1.07;100.00
14295;BME280;7231;59.370;18.016;2022-12-18T04:30:56;101864.56;;;-1.04;100.00
14295;BME280;7231;59.370;18.016;2022-12-18T04:33:25;101837.31;;;-1.21;100.00
14295;BME280;7231;59.370;18.016;2022-12-18T04:35:54;101832.16;;;-1.21;100.00
14295;BME280;7231;59.370;18.016;2022-12-18T04:38:22;101863.38;;;-1.08;100.00
14295;BME280;7231;59.370;18.016;2022-12-18T04:40:49;101868.38;;;-1.09;100.00
14295;BME280;7231;59.370;18.016;2022-12-18T04:43:17;101865.81;;;-1.09;100.00
14295;BME280;7231;59.370;18.016;2022-12-18T04:45:45;101864.91;;;-1.10;100.00
14295;BME280;7231;59.370;18.016;2022-12-18T04:48:13;101798.28;;;-1.44;100.00
14295;BME280;7231;59.370;18.016;2022-12-18T04:50:43;101823.66;;;-1.20;100.00
14295;BME280;7231;59.370;18.016;2022-12-18T04:53:11;101844.31;;;-1.10;100.00
14295;BME280;7231;59.370;18.016;2022-12-18T04:55:39;101848.06;;;-1.06;100.00
14295;BME280;7231;59.370;18.016;2022-12-18T04:58:07;101737.63;;;-1.61;100.00
14295;BME280;7231;59.370;18.016;2022-12-18T05:00:35;101810.03;;;-1.19;100.00
14295;BME280;7231;59.370;18.016;2022-12-18T05:03:03;101818.72;;;-1.08;100.00
14295;BME280;7231;59.370;18.016;2022-12-18T05:05:31;101801.69;;;-1.16;100.00
14295;BME280;7231;59.370;18.016;2022-12-18T05:08:01;101815.38;;;-1.07;100.00
14295;BME280;7231;59.370;18.016;2022-12-18T05:10:28;101807.66;;;-1.07;100.00
14295;BME280;7231;59.370;18.016;2022-12-18T05:13:03;101814.47;;;-1.08;100.00
14295;BME280;7231;59.370;18.016;2022-12-18T05:15:32;101792.34;;;-1.06;100.00
14295;BME280;7231;59.370;18.016;2022-12-18T05:18:00;101790.53;;;-1.07;100.00
14295;BME280;7231;59.370;18.016;2022-12-18T05:20:28;101780.19;;;-1.17;100.00
14295;BME280;7231;59.370;18.016;2022-12-18T05:22:56;101778.53;;;-1.16;100.00
14295;BME280;7231;59.370;18.016;2022-12-18T05:25:26;101793.25;;;-1.05;100.00
14295;BME280;7231;59.370;18.016;2022-12-18T05:27:54;101754.28;;;-1.28;100.00
14295;BME280;7231;59.370;18.016;2022-12-18T05:30:22;101794.44;;;-1.02;100.00
14295;BME280;7231;59.370;18.016;2022-12-18T05:32:50;101797.00;;;-1.02;100.00
14295;BME280;7231;59.370;18.016;2022-12-18T05:35:19;101785.81;;;-1.02;100.00
14295;BME280;7231;59.370;18.016;2022-12-18T05:37:47;101803.19;;;-1.00;100.00
14295;BME280;7231;59.370;18.016;2022-12-18T05:40:15;101798.03;;;-1.00;100.00
14295;BME280;7231;59.370;18.016;2022-12-18T05:42:44;101786.09;;;-0.99;100.00
14295;BME280;7231;59.370;18.016;2022-12-18T05:45:12;101777.44;;;-1.00;100.00
14295;BME280;7231;59.370;18.016;2022-12-18T05:47:40;101782.75;;;-0.98;100.00
14295;BME280;7231;59.370;18.016;2022-12-18T05:50:08;101781.06;;;-0.98;100.00
14295;BME280;7231;59.370;18.016;2022-12-18T05:52:36;101784.69;;;-0.95;100.00
14295;BME280;7231;59.370;18.016;2022-12-18T05:55:04;101778.75;;;-0.94;100.00
14295;BME280;7231;59.370;18.016;2022-12-18T05:57:32;101789.34;;;-0.91;100.00
14295;BME280;7231;59.370;18.016;2022-12-18T06:00:01;101773.13;;;-0.90;100.00
14295;BME280;7231;59.370;18.016;2022-12-18T06:02:29;101780.97;;;-0.89;100.00
14295;BME280;7231;59.370;18.016;2022-12-18T06:04:57;101764.91;;;-0.86;100.00
14295;BME280;7231;59.370;18.016;2022-12-18T06:07:25;101772.75;;;-0.85;100.00
14295;BME280;7231;59.370;18.016;2022-12-18T06:09:53;101764.41;;;-0.82;100.00
14295;BME280;7231;59.370;18.016;2022-12-18T06:12:21;101760.16;;;-0.82;100.00
14295;BME280;7231;59.370;18.016;2022-12-18T06:14:49;101760.03;;;-0.83;100.00
14295;BME280;7231;59.370;18.016;2022-12-18T06:17:18;101762.59;;;-0.83;100.00
14295;BME280;7231;59.370;18.016;2022-12-18T06:19:46;101768.66;;;-0.83;100.00
14295;BME280;7231;59.370;18.016;2022-12-18T06:22:14;101766.97;;;-0.82;100.00
14295;BME280;7231;59.370;18.016;2022-12-18T06:24:43;101766.22;;;-0.81;100.00
14295;BME280;7231;59.370;18.016;2022-12-18T06:27:11;101764.66;;;-0.79;100.00
14295;BME280;7231;59.370;18.016;2022-12-18T06:29:39;101768.28;;;-0.77;100.00
14295;BME280;7231;59.370;18.016;2022-12-18T06:32:07;101763.25;;;-0.76;100.00
14295;BME280;7231;59.370;18.016;2022-12-18T06:34:38;101755.53;;;-0.76;100.00
14295;BME280;7231;59.370;18.016;2022-12-18T06:37:06;101752.97;;;-0.76;100.00
14295;BME280;7231;59.370;18.016;2022-12-18T06:39:34;101751.28;;;-0.75;100.00
14295;BME280;7231;59.370;18.016;2022-12-18T06:42:02;101747.69;;;-0.77;100.00
14295;BME280;7231;59.370;18.016;2022-12-18T06:44:31;101754.63;;;-0.76;100.00
14295;BME280;7231;59.370;18.016;2022-12-18T06:46:59;101748.72;;;-0.75;100.00
14295;BME280;7231;59.370;18.016;2022-12-18T06:49:26;101759.78;;;-0.76;100.00
14295;BME280;7231;59.370;18.016;2022-12-18T06:51:57;101764.03;;;-0.77;100.00
14295;BME280;7231;59.370;18.016;2022-12-18T06:54:25;101773.44;;;-0.77;100.00
14295;BME280;7231;59.370;18.016;2022-12-18T06:56:53;101679.03;;;-1.26;100.00
14295;BME280;7231;59.370;18.016;2022-12-18T06:59:21;101768.41;;;-0.76;100.00
14295;BME280;7231;59.370;18.016;2022-12-18T07:01:49;101765.72;;;-0.77;100.00
14295;BME280;7231;59.370;18.016;2022-12-18T07:04:17;101769.19;;;-0.77;100.00
14295;BME280;7231;59.370;18.016;2022-12-18T07:06:45;101764.03;;;-0.77;100.00
14295;BME280;7231;59.370;18.016;2022-12-18T07:09:14;101770.84;;;-0.77;100.00
14295;BME280;7231;59.370;18.016;2022-12-18T07:11:42;101777.19;;;-0.74;100.00
14295;BME280;7231;59.370;18.016;2022-12-18T07:14:10;101772.03;;;-0.74;100.00
14295;BME280;7231;59.370;18.016;2022-12-18T07:16:38;101776.41;;;-0.73;100.00
14295;BME280;7231;59.370;18.016;2022-12-18T07:19:07;101768.16;;;-0.79;100.00
14295;BME280;7231;59.370;18.016;2022-12-18T07:21:35;101787.25;;;-0.67;100.00
14295;BME280;7231;59.370;18.016;2022-12-18T07:24:04;101784.81;;;-0.65;100.00
14295;BME280;7231;59.370;18.016;2022-12-18T07:26:33;101780.69;;;-0.63;100.00
14295;BME280;7231;59.370;18.016;2022-12-18T07:29:01;101791.25;;;-0.60;100.00
14295;BME280;7231;59.370;18.016;2022-12-18T07:31:29;101775.16;;;-0.57;100.00
14295;BME280;7231;59.370;18.016;2022-12-18T07:33:57;101771.19;;;-0.54;100.00
14295;BME280;7231;59.370;18.016;2022-12-18T07:36:25;101730.97;;;-0.72;100.00
14295;BME280;7231;59.370;18.016;2022-12-18T07:38:53;101745.94;;;-0.58;100.00
14295;BME280;7231;59.370;18.016;2022-12-18T07:41:21;101749.03;;;-0.52;100.00
14295;BME280;7231;59.370;18.016;2022-12-18T07:43:50;101768.13;;;-0.40;100.00
14295;BME280;7231;59.370;18.016;2022-12-18T07:46:18;101775.34;;;-0.36;100.00
14295;BME280;7231;59.370;18.016;2022-12-18T07:48:46;101706.25;;;-0.70;100.00
14295;BME280;7231;59.370;18.016;2022-12-18T07:51:16;101711.28;;;-0.61;100.00
14295;BME280;7231;59.370;18.016;2022-12-18T07:53:44;101764.16;;;-0.26;100.00
14295;BME280;7231;59.370;18.016;2022-12-18T07:56:18;101742.63;;;-0.37;100.00
14295;BME280;7231;59.370;18.016;2022-12-18T07:58:58;101754.22;;;-0.31;100.00
14295;BME280;7231;59.370;18.016;2022-12-18T08:01:26;101771.53;;;-0.20;100.00
14295;BME280;7231;59.370;18.016;2022-12-18T08:03:55;101773.59;;;-0.16;100.00
14295;BME280;7231;59.370;18.016;2022-12-18T08:06:24;101769.47;;;-0.14;100.00
14295;BME280;7231;59.370;18.016;2022-12-18T08:08:52;101773.84;;;-0.13;100.00
14295;BME280;7231;59.370;18.016;2022-12-18T08:11:21;101743.69;;;-0.24;100.00
14295;BME280;7231;59.370;18.016;2022-12-18T08:13:50;101732.22;;;-0.28;100.00
14295;BME280;7231;59.370;18.016;2022-12-18T08:16:20;101760.56;;;-0.08;100.00
14295;BME280;7231;59.370;18.016;2022-12-18T08:18:48;101761.75;;;-0.04;100.00
14295;BME280;7231;59.370;18.016;2022-12-18T08:21:18;101728.47;;;-0.11;100.00
14295;BME280;7231;59.370;18.016;2022-12-18T08:23:48;101750.09;;;0.01;100.00
14295;BME280;7231;59.370;18.016;2022-12-18T08:26:18;101740.06;;;0.04;100.00
14295;BME280;7231;59.370;18.016;2022-12-18T08:28:46;101735.03;;;0.06;100.00
14295;BME280;7231;59.370;18.016;2022-12-18T08:31:16;101737.09;;;0.10;100.00
14295;BME280;7231;59.370;18.016;2022-12-18T08:33:48;101698.06;;;-0.05;100.00
14295;BME280;7231;59.370;18.016;2022-12-18T08:36:16;101738.50;;;0.16;100.00
14295;BME280;7231;59.370;18.016;2022-12-18T08:38:45;101675.13;;;-0.22;100.00
14295;BME280;7231;59.370;18.016;2022-12-18T08:41:14;101737.34;;;0.23;100.00
14295;BME280;7231;59.370;18.016;2022-12-18T08:43:43;101745.44;;;0.27;100.00
14295;BME280;7231;59.370;18.016;2022-12-18T08:46:32;101714.78;;;0.10;100.00
14295;BME280;7231;59.370;18.016;2022-12-18T08:49:03;101735.13;;;0.27;100.00
14295;BME280;7231;59.370;18.016;2022-12-18T08:51:32;101736.94;;;0.39;100.00
14295;BME280;7231;59.370;18.016;2022-12-18T08:54:01;101712.81;;;0.28;100.00
14295;BME280;7231;59.370;18.016;2022-12-18T08:56:32;101724.44;;;0.33;100.00
14295;BME280;7231;59.370;18.016;2022-12-18T08:59:01;101743.63;;;0.47;100.00
14295;BME280;7231;59.370;18.016;2022-12-18T09:01:29;101708.94;;;0.33;100.00
14295;BME280;7231;59.370;18.016;2022-12-18T09:03:57;101732.00;;;0.52;100.00
14295;BME280;7231;59.370;18.016;2022-12-18T09:06:26;101731.34;;;0.54;100.00
14295;BME280;7231;59.370;18.016;2022-12-18T09:08:54;101690.88;;;0.33;100.00
14295;BME280;7231;59.370;18.016;2022-12-18T09:11:24;101716.28;;;0.49;100.00
14295;BME280;7231;59.370;18.016;2022-12-18T09:13:54;101693.84;;;0.38;100.00
14295;BME280;7231;59.370;18.016;2022-12-18T09:16:23;101744.59;;;0.69;100.00
14295;BME280;7231;59.370;18.016;2022-12-18T09:18:57;101747.56;;;0.74;100.00
14295;BME280;7231;59.370;18.016;2022-12-18T09:21:29;101738.38;;;0.77;100.00
14295;BME280;7231;59.370;18.016;2022-12-18T09:24:01;101738.75;;;0.82;100.00
14295;BME280;7231;59.370;18.016;2022-12-18T09:26:30;101724.66;;;0.88;100.00
14295;BME280;7231;59.370;18.016;2022-12-18T09:28:58;101718.97;;;0.92;100.00
14295;BME280;7231;59.370;18.016;2022-12-18T09:31:26;101676.97;;;0.73;100.00
14295;BME280;7231;59.370;18.016;2022-12-18T09:33:55;101706.56;;;0.98;100.00
14295;BME280;7231;59.370;18.016;2022-12-18T09:36:22;101688.78;;;0.91;100.00
14295;BME280;7231;59.370;18.016;2022-12-18T09:38:52;101696.72;;;1.05;100.00
14295;BME280;7231;59.370;18.016;2022-12-18T09:41:37;101598.06;;;0.55;100.00
14295;BME280;7231;59.370;18.016;2022-12-18T09:44:15;101665.47;;;1.02;100.00
14295;BME280;7231;59.370;18.016;2022-12-18T09:46:47;101672.38;;;1.13;100.00
14295;BME280;7231;59.370;18.016;2022-12-18T09:49:20;101629.13;;;0.88;100.00
14295;BME280;7231;59.370;18.016;2022-12-18T09:51:52;101657.59;;;1.00;100.00
14295;BME280;7231;59.370;18.016;2022-12-18T09:54:26;101650.59;;;1.09;100.00
14295;BME280;7231;59.370;18.016;2022-12-18T09:56:58;101654.44;;;1.14;100.00
14295;BME280;7231;59.370;18.016;2022-12-18T09:59:32;101593.72;;;0.97;100.00
14295;BME280;7231;59.370;18.016;2022-12-18T10:02:14;101662.72;;;1.32;100.00
14295;BME280;7231;59.370;18.016;2022-12-18T10:04:42;101666.31;;;1.34;100.00
14295;BME280;7231;59.370;18.016;2022-12-18T10:07:16;101666.44;;;1.36;100.00
14295;BME280;7231;59.370;18.016;2022-12-18T10:09:53;101670.16;;;1.39;100.00
14295;BME280;7231;59.370;18.016;2022-12-18T10:12:30;101664.22;;;1.40;100.00
14295;BME280;7231;59.370;18.016;2022-12-18T10:15:04;101618.88;;;1.22;100.00
14295;BME280;7231;59.370;18.016;2022-12-18T10:17:41;101644.78;;;1.45;100.00
14295;BME280;7231;59.370;18.016;2022-12-18T10:20:16;101643.00;;;1.44;100.00
14295;BME280;7231;59.370;18.016;2022-12-18T10:22:58;101650.75;;;1.44;100.00
14295;BME280;7231;59.370;18.016;2022-12-18T10:25:35;101654.16;;;1.55;100.00
14295;BME280;7231;59.370;18.016;2022-12-18T10:28:10;101645.75;;;1.57;100.00
14295;BME280;7231;59.370;18.016;2022-12-18T10:30:42;101634.63;;;1.58;100.00
14295;BME280;7231;59.370;18.016;2022-12-18T10:33:11;101644.16;;;1.59;100.00
14295;BME280;7231;59.370;18.016;2022-12-18T10:35:41;101650.25;;;1.60;100.00
14295;BME280;7231;59.370;18.016;2022-12-18T10:38:22;101654.94;;;1.54;100.00
14295;BME280;7231;59.370;18.016;2022-12-18T10:40:55;101658.31;;;1.53;100.00
14295;BME280;7231;59.370;18.016;2022-12-18T10:43:25;101666.88;;;1.63;100.00
14295;BME280;7231;59.370;18.016;2022-12-18T10:46:13;101651.38;;;1.63;100.00
14295;BME280;7231;59.370;18.016;2022-12-18T10:48:51;101659.91;;;1.62;100.00
14295;BME280;7231;59.370;18.016;2022-12-18T10:51:23;101668.69;;;1.65;100.00
14295;BME280;7231;59.370;18.016;2022-12-18T10:53:55;101668.69;;;1.65;100.00
14295;BME280;7231;59.370;18.016;2022-12-18T10:56:27;101660.16;;;1.66;100.00
14295;BME280;7231;59.370;18.016;2022-12-18T10:58:58;101648.00;;;1.65;100.00
14295;BME280;7231;59.370;18.016;2022-12-18T11:01:27;101663.50;;;1.65;100.00
14295;BME280;7231;59.370;18.016;2022-12-18T11:04:02;101649.66;;;1.52;100.00
14295;BME280;7231;59.370;18.016;2022-12-18T11:06:30;101649.81;;;1.66;100.00
14295;BME280;7231;59.370;18.016;2022-12-18T11:09:00;101623.25;;;1.56;100.00
14295;BME280;7231;59.370;18.016;2022-12-18T11:11:39;101650.81;;;1.68;100.00
14295;BME280;7231;59.370;18.016;2022-12-18T11:14:13;101629.38;;;1.69;100.00
14295;BME280;7231;59.370;18.016;2022-12-18T11:16:46;101649.38;;;1.71;100.00
14295;BME280;7231;59.370;18.016;2022-12-18T11:19:36;101653.88;;;1.74;100.00
14295;BME280;7231;59.370;18.016;2022-12-18T11:22:19;101599.31;;;1.47;100.00
14295;BME280;7231;59.370;18.016;2022-12-18T11:24:54;101646.13;;;1.74;100.00
14295;BME280;7231;59.370;18.016;2022-12-18T11:27:49;101639.94;;;1.72;100.00
14295;BME280;7231;59.370;18.016;2022-12-18T11:30:23;101623.63;;;1.73;100.00
14295;BME280;7231;59.370;18.016;2022-12-18T11:32:54;101574.78;;;1.42;100.00
14295;BME280;7231;59.370;18.016;2022-12-18T11:35:33;101633.44;;;1.77;100.00
14295;BME280;7231;59.370;18.016;2022-12-18T11:38:10;101624.88;;;1.78;100.00
14295;BME280;7231;59.370;18.016;2022-12-18T11:40:42;101617.91;;;1.77;100.00
14295;BME280;7231;59.370;18.016;2022-12-18T11:43:17;101634.22;;;1.76;100.00
14295;BME280;7231;59.370;18.016;2022-12-18T11:45:53;101657.47;;;1.76;100.00
14295;BME280;7231;59.370;18.016;2022-12-18T11:48:24;101639.38;;;1.76;100.00
14295;BME280;7231;59.370;18.016;2022-12-18T11:50:55;101623.97;;;1.77;100.00
14295;BME280;7231;59.370;18.016;2022-12-18T11:53:25;101631.63;;;1.76;100.00
14295;BME280;7231;59.370;18.016;2022-12-18T11:56:02;101602.81;;;1.59;100.00
14295;BME280;7231;59.370;18.016;2022-12-18T11:58:44;101627.13;;;1.73;100.00
14295;BME280;7231;59.370;18.016;2022-12-18T12:01:21;101618.38;;;1.83;100.00
14295;BME280;7231;59.370;18.016;2022-12-18T12:04:14;101620.19;;;1.84;100.00
14295;BME280;7231;59.370;18.016;2022-12-18T12:06:50;101634.00;;;1.84;100.00
14295;BME280;7231;59.370;18.016;2022-12-18T12:09:35;101632.44;;;1.86;100.00
14295;BME280;7231;59.370;18.016;2022-12-18T12:12:22;101637.72;;;1.88;100.00
14295;BME280;7231;59.370;18.016;2022-12-18T12:15:01;101627.38;;;1.88;100.00
14295;BME280;7231;59.370;18.016;2022-12-18T12:17:37;101632.78;;;1.91;100.00
14295;BME280;7231;59.370;18.016;2022-12-18T12:20:13;101634.59;;;1.92;100.00
14295;BME280;7231;59.370;18.016;2022-12-18T12:22:48;101637.41;;;1.95;100.00
14295;BME280;7231;59.370;18.016;2022-12-18T12:25:25;101639.97;;;1.95;100.00
14295;BME280;7231;59.370;18.016;2022-12-18T12:28:02;101653.16;;;1.98;100.00
14295;BME280;7231;59.370;18.016;2022-12-18T12:30:43;101624.69;;;1.86;100.00
14295;BME280;7231;59.370;18.016;2022-12-18T12:33:28;101659.44;;;2.02;100.00
14295;BME280;7231;59.370;18.016;2022-12-18T12:36:03;101645.63;;;2.01;100.00
14295;BME280;7231;59.370;18.016;2022-12-18T12:38:41;101603.50;;;1.69;100.00
14295;BME280;7231;59.370;18.016;2022-12-18T12:41:20;101644.38;;;2.08;100.00
14295;BME280;7231;59.370;18.016;2022-12-18T12:44:12;101644.38;;;2.08;100.00
14295;BME280;7231;59.370;18.016;2022-12-18T12:46:44;101645.50;;;2.11;100.00
14295;BME280;7231;59.370;18.016;2022-12-18T12:49:15;101644.63;;;2.11;100.00
14295;BME280;7231;59.370;18.016;2022-12-18T12:51:53;101648.09;;;2.11;100.00
14295;BME280;7231;59.370;18.016;2022-12-18T12:54:24;101654.19;;;2.12;100.00
14295;BME280;7231;59.370;18.016;2022-12-18T12:56:57;101622.31;;;1.89;100.00
14295;BME280;7231;59.370;18.016;2022-12-18T12:59:31;101649.47;;;2.18;100.00
14295;BME280;7231;59.370;18.016;2022-12-18T13:02:09;101660.81;;;2.20;100.00
14295;BME280;7231;59.370;18.016;2022-12-18T13:04:48;101641.47;;;2.15;100.00
14295;BME280;7231;59.370;18.016;2022-12-18T13:07:24;101653.50;;;2.26;100.00